Time;durP1;ratioP1;P1;durP2;ratioP2;P2;SDS_P1;SDS_P2;PMS_P1;PMS_P2;Temp;Humidity;BMP_temperature;BMP_pressure;BME280_temperature;BME280_humidity;BME280_pressure;Samples;Min_cycle;Max_cycle;Signal;HPM_P1;HPM_P2
2022/03/18 00:01:23;;;;;;;5.68;2.40;;;-2.00;99.90;;;;;;4924271;29;20399;-91
2022/03/18 00:03:52;;;;;;;6.25;2.50;;;-2.00;99.90;;;;;;4932239;29;20411;-90
2022/03/18 00:06:20;;;;;;;5.38;2.60;;;-2.00;99.90;;;;;;4932178;29;20411;-90
2022/03/18 00:08:49;;;;;;;6.45;2.75;;;-2.00;99.90;;;;;;4916475;29;20406;-90
2022/03/18 00:11:16;;;;;;;5.50;2.50;;;-2.10;99.90;;;;;;4901053;29;20396;-90
2022/03/18 00:13:44;;;;;;;5.82;2.30;;;-2.10;99.90;;;;;;4916461;29;20400;-90
2022/03/18 00:16:14;;;;;;;5.43;2.45;;;-2.10;99.90;;;;;;4932350;29;20463;-90
2022/03/18 00:18:42;;;;;;;6.15;2.88;;;-2.20;99.90;;;;;;4932294;29;20422;-91
2022/03/18 00:21:10;;;;;;;6.68;2.78;;;-2.20;99.90;;;;;;4915937;29;20783;-90
2022/03/18 00:23:37;;;;;;;5.90;2.65;;;-2.20;99.90;;;;;;4932283;29;20419;-90
2022/03/18 00:26:05;;;;;;;5.75;2.65;;;-2.20;99.90;;;;;;4931981;29;20820;-91
2022/03/18 00:28:32;;;;;;;6.55;2.90;;;-2.20;99.90;;;;;;4932011;29;20415;-90
2022/03/18 00:31:03;;;;;;;5.80;2.78;;;-2.30;99.90;;;;;;4908543;29;20459;-91
2022/03/18 00:33:31;;;;;;;6.03;2.85;;;-2.30;99.90;;;;;;4916212;29;20540;-91
2022/03/18 00:35:59;;;;;;;7.40;3.25;;;-2.30;99.90;;;;;;4931750;29;20568;-91
2022/03/18 00:38:27;;;;;;;6.20;3.03;;;-2.40;99.90;;;;;;4915978;29;20416;-90
2022/03/18 00:40:56;;;;;;;6.97;3.05;;;-2.40;99.90;;;;;;4915753;29;20423;-90
2022/03/18 00:43:23;;;;;;;5.75;2.80;;;-2.40;99.90;;;;;;4915818;29;20424;-90
2022/03/18 00:45:51;;;;;;;6.90;3.10;;;-2.40;99.90;;;;;;4916190;29;20412;-92
2022/03/18 00:53:51;;;;;;;6.90;3.20;;;-2.50;99.90;;;;;;4916204;29;20486;-90
2022/03/18 00:56:19;;;;;;;6.68;3.00;;;-2.60;99.90;;;;;;4915691;29;20500;-91
2022/03/18 00:58:46;;;;;;;6.25;3.20;;;-2.50;99.90;;;;;;4915908;29;20494;-91
2022/03/18 01:01:14;;;;;;;6.88;2.97;;;-2.50;99.90;;;;;;4915949;29;20839;-91
2022/03/18 01:03:42;;;;;;;6.47;3.00;;;-2.60;99.90;;;;;;4931399;29;20407;-91
2022/03/18 01:06:09;;;;;;;6.32;2.90;;;-2.60;99.90;;;;;;4915608;29;20973;-91
2022/03/18 01:08:36;;;;;;;6.18;2.97;;;-2.60;99.90;;;;;;4931296;29;20934;-90
2022/03/18 01:11:04;;;;;;;5.53;2.80;;;-2.60;99.90;;;;;;4930971;29;20404;-91
2022/03/18 01:13:32;;;;;;;7.30;3.13;;;-2.60;99.90;;;;;;4915180;29;20404;-90
2022/03/18 01:15:59;;;;;;;6.23;3.00;;;-2.60;99.90;;;;;;4899680;29;20412;-90
2022/03/18 01:18:27;;;;;;;6.93;3.13;;;-2.60;99.90;;;;;;4916366;29;20403;-89
2022/03/18 01:20:55;;;;;;;5.88;2.90;;;-2.60;99.90;;;;;;4899264;29;20408;-90
2022/03/18 01:23:23;;;;;;;6.05;2.75;;;-2.60;99.90;;;;;;4930906;29;20416;-90
2022/03/18 01:25:50;;;;;;;6.70;2.80;;;-2.70;99.90;;;;;;4930583;29;20494;-90
2022/03/18 01:28:18;;;;;;;5.45;2.95;;;-2.70;99.90;;;;;;4915484;29;20395;-89
2022/03/18 01:30:45;;;;;;;5.88;2.70;;;-2.80;99.90;;;;;;4917303;29;20503;-89
2022/03/18 01:33:13;;;;;;;6.83;3.00;;;-2.80;99.90;;;;;;4923111;29;20451;-90
2022/03/18 01:35:40;;;;;;;6.30;3.00;;;-2.80;99.90;;;;;;4930434;29;20444;-90
2022/03/18 01:38:08;;;;;;;7.17;3.20;;;-2.80;99.90;;;;;;4915717;29;20406;-91
2022/03/18 01:40:35;;;;;;;6.90;2.92;;;-2.80;99.90;;;;;;4898490;29;20495;-91
2022/03/18 01:43:10;;;;;;;5.97;2.67;;;-2.80;99.90;;;;;;4914292;29;20493;-92
2022/03/18 01:45:38;;;;;;;7.17;3.17;;;-2.80;99.90;;;;;;4930036;29;20416;-91
2022/03/18 01:48:06;;;;;;;6.13;3.10;;;-2.80;99.90;;;;;;4945620;29;20405;-91
2022/03/18 01:50:34;;;;;;;7.20;3.17;;;-2.90;99.90;;;;;;4945933;29;20403;-89
2022/03/18 01:53:02;;;;;;;7.00;3.20;;;-2.90;99.90;;;;;;4929953;29;20807;-90
2022/03/18 01:55:30;;;;;;;6.80;3.03;;;-2.90;99.90;;;;;;4915130;29;20399;-90
2022/03/18 01:57:57;;;;;;;5.40;2.93;;;-2.90;99.90;;;;;;4930031;29;20411;-90
2022/03/18 02:00:25;;;;;;;6.70;3.10;;;-2.90;99.90;;;;;;4946216;28;20427;-90
2022/03/18 02:02:53;;;;;;;8.07;3.40;;;-2.90;99.90;;;;;;4932674;29;20515;-91
2022/03/18 02:05:21;;;;;;;6.30;3.00;;;-2.90;99.90;;;;;;4933000;29;20403;-91
2022/03/18 02:07:48;;;;;;;7.82;3.33;;;-3.00;99.90;;;;;;4933091;29;20433;-90
2022/03/18 02:10:16;;;;;;;7.53;3.50;;;-3.00;99.90;;;;;;4949150;29;20808;-91
2022/03/18 02:12:44;;;;;;;7.32;3.22;;;-3.00;99.90;;;;;;4948828;29;20404;-90
2022/03/18 02:15:18;;;;;;;7.97;3.50;;;-3.00;99.90;;;;;;4902575;29;20475;-91
2022/03/18 02:17:46;;;;;;;6.50;3.00;;;-3.10;99.90;;;;;;4932877;29;20411;-91
2022/03/18 02:20:13;;;;;;;7.00;3.20;;;-3.10;99.90;;;;;;4932843;29;20423;-91
2022/03/18 02:22:41;;;;;;;8.00;3.43;;;-3.10;99.90;;;;;;4948862;29;20946;-91
2022/03/18 02:25:12;;;;;;;6.85;3.17;;;-3.10;99.90;;;;;;4838813;29;2335628;-90
2022/03/18 02:27:53;;;;;;;6.82;3.28;;;-3.10;99.90;;;;;;4919702;29;20494;-90
2022/03/18 02:30:21;;;;;;;6.50;3.40;;;-3.20;99.90;;;;;;4950273;29;20414;-90
2022/03/18 02:32:49;;;;;;;7.43;3.22;;;-3.20;99.90;;;;;;4933553;29;20422;-89
2022/03/18 02:35:17;;;;;;;8.52;3.50;;;-3.20;99.90;;;;;;4949653;29;20404;-90
2022/03/18 02:37:44;;;;;;;9.20;4.00;;;-3.20;99.90;;;;;;4933685;29;20443;-89
2022/03/18 02:40:14;;;;;;;8.77;3.60;;;-3.20;99.90;;;;;;4933498;29;20430;-91
2022/03/18 02:42:44;;;;;;;7.35;3.58;;;-3.20;99.90;;;;;;4933688;29;20415;-91
2022/03/18 02:45:11;;;;;;;6.85;3.42;;;-3.20;99.90;;;;;;4934053;29;20411;-91
2022/03/18 02:47:39;;;;;;;8.32;3.50;;;-3.30;99.90;;;;;;4949858;29;20498;-91
2022/03/18 02:50:07;;;;;;;8.47;3.90;;;-3.30;99.90;;;;;;4933408;29;20932;-91
2022/03/18 02:52:35;;;;;;;9.38;4.10;;;-3.30;99.90;;;;;;4949578;29;20486;-90
2022/03/18 02:55:02;;;;;;;10.48;3.90;;;-3.40;99.90;;;;;;4933573;29;20410;-90
2022/03/18 02:57:32;;;;;;;8.63;3.90;;;-3.40;99.90;;;;;;4933542;29;20419;-91
2022/03/18 02:59:59;;;;;;;9.60;3.72;;;-3.40;99.90;;;;;;4933590;29;20479;-90
2022/03/18 03:02:27;;;;;;;7.10;3.70;;;-3.40;99.90;;;;;;4933360;29;20439;-91
2022/03/18 03:07:59;;;;;;;7.03;3.47;;;-3.40;99.90;;;;;;4917761;29;20403;-90
2022/03/18 03:10:36;;;;;;;7.10;3.72;;;-3.50;99.90;;;;;;4933315;29;20483;-91
2022/03/18 03:13:08;;;;;;;8.05;3.80;;;-3.50;99.90;;;;;;4932487;29;20416;-90
2022/03/18 03:15:38;;;;;;;9.57;3.92;;;-3.50;99.90;;;;;;4949109;29;20415;-91
2022/03/18 03:18:06;;;;;;;11.00;3.85;;;-3.50;99.90;;;;;;4931835;29;20415;-90
2022/03/18 03:20:34;;;;;;;7.03;3.72;;;-3.50;99.90;;;;;;4918000;29;20451;-90
2022/03/18 03:23:02;;;;;;;7.72;3.50;;;-3.50;99.90;;;;;;4952303;29;20437;-90
2022/03/18 03:25:29;;;;;;;8.15;3.83;;;-3.50;99.90;;;;;;4951763;29;20434;-90
2022/03/18 03:27:57;;;;;;;8.10;3.40;;;-3.50;99.90;;;;;;4952338;29;20477;-90
2022/03/18 03:30:25;;;;;;;8.98;3.50;;;-3.50;99.90;;;;;;4951682;29;20449;-90
2022/03/18 03:32:52;;;;;;;9.85;3.92;;;-3.60;99.90;;;;;;4952210;28;20932;-91
2022/03/18 03:35:20;;;;;;;8.05;3.58;;;-3.60;99.90;;;;;;4952231;29;20824;-91
2022/03/18 03:37:47;;;;;;;9.20;3.70;;;-3.60;99.90;;;;;;4951988;29;20413;-91
2022/03/18 03:40:15;;;;;;;8.13;3.90;;;-3.60;99.90;;;;;;4951797;29;20422;-92
2022/03/18 03:42:44;;;;;;;8.82;4.15;;;-3.70;99.90;;;;;;4919955;29;20493;-91
2022/03/18 03:45:13;;;;;;;7.45;3.67;;;-3.70;99.90;;;;;;4951614;29;20407;-91
2022/03/18 03:47:41;;;;;;;8.32;3.83;;;-3.60;99.90;;;;;;4936104;29;20414;-91
2022/03/18 03:50:10;;;;;;;7.72;3.75;;;-3.70;99.90;;;;;;4951789;29;20757;-91
2022/03/18 03:52:39;;;;;;;8.63;3.70;;;-3.70;99.90;;;;;;4936661;29;20412;-91
2022/03/18 03:55:09;;;;;;;9.40;3.55;;;-3.70;99.90;;;;;;4928008;29;20416;-91
2022/03/18 03:57:38;;;;;;;8.40;3.83;;;-3.80;99.90;;;;;;4916581;29;20404;-90
2022/03/18 04:00:07;;;;;;;7.60;3.85;;;-3.70;99.90;;;;;;4901612;29;20412;-90
2022/03/18 04:02:37;;;;;;;6.72;3.47;;;-3.80;99.90;;;;;;4937179;29;20398;-91
2022/03/18 04:05:07;;;;;;;8.13;3.85;;;-3.80;99.90;;;;;;4919718;29;20908;-90
2022/03/18 04:07:35;;;;;;;9.73;3.58;;;-3.70;99.90;;;;;;4920315;29;20449;-92
2022/03/18 04:10:04;;;;;;;7.20;3.78;;;-3.80;99.90;;;;;;4920037;29;20402;-91
2022/03/18 04:12:35;;;;;;;9.30;3.97;;;-3.80;99.90;;;;;;4920361;29;20406;-90
2022/03/18 04:15:04;;;;;;;8.52;4.20;;;-3.80;99.90;;;;;;4935417;29;20761;-90
2022/03/18 04:17:39;;;;;;;7.78;3.78;;;-3.80;99.90;;;;;;4919457;29;20402;-90
2022/03/18 04:20:09;;;;;;;7.38;3.42;;;-3.80;99.90;;;;;;4919444;29;20437;-90
2022/03/18 04:22:36;;;;;;;7.22;3.22;;;-3.90;99.90;;;;;;4935199;29;20390;-89
2022/03/18 04:25:05;;;;;;;9.80;4.00;;;-3.90;99.90;;;;;;4934639;29;20414;-91
2022/03/18 04:27:33;;;;;;;7.40;3.50;;;-3.90;99.90;;;;;;4935298;29;20489;-91
2022/03/18 04:30:01;;;;;;;7.00;3.30;;;-3.90;99.90;;;;;;4919401;29;20421;-91
2022/03/18 04:32:28;;;;;;;8.32;3.67;;;-3.90;99.90;;;;;;4919049;29;20404;-90
2022/03/18 04:34:56;;;;;;;9.15;3.78;;;-3.90;99.90;;;;;;4919362;29;20409;-90
2022/03/18 04:37:24;;;;;;;8.93;4.30;;;-4.00;99.90;;;;;;4934828;29;20402;-90
2022/03/18 04:39:52;;;;;;;7.20;3.60;;;-4.00;99.90;;;;;;4919385;29;20461;-90
2022/03/18 04:42:20;;;;;;;6.53;3.20;;;-4.00;99.90;;;;;;4934886;29;20431;-90
2022/03/18 04:44:47;;;;;;;7.30;3.38;;;-4.00;99.90;;;;;;4919116;29;20410;-90
2022/03/18 04:47:15;;;;;;;8.63;3.67;;;-4.00;99.90;;;;;;4919527;29;20437;-90
2022/03/18 04:49:42;;;;;;;8.23;3.38;;;-4.00;99.90;;;;;;4934862;29;20476;-90
2022/03/18 04:52:10;;;;;;;7.68;3.40;;;-4.10;99.90;;;;;;4934697;29;20414;-91
2022/03/18 04:54:37;;;;;;;7.85;3.30;;;-4.10;99.90;;;;;;4918753;29;20401;-91
2022/03/18 04:57:15;;;;;;;7.65;3.65;;;-4.10;99.90;;;;;;4950690;29;20398;-90
2022/03/18 04:59:43;;;;;;;7.32;3.35;;;-4.00;99.90;;;;;;4919063;29;20402;-91
2022/03/18 05:02:14;;;;;;;7.78;3.45;;;-4.00;99.90;;;;;;4929810;29;20421;-91
2022/03/18 05:04:44;;;;;;;11.40;4.05;;;-4.00;99.90;;;;;;4919069;29;20428;-91
2022/03/18 05:07:12;;;;;;;7.53;3.40;;;-4.00;99.90;;;;;;4899054;29;20554;-89
2022/03/18 05:09:40;;;;;;;8.55;3.95;;;-4.00;99.90;;;;;;4918574;29;20438;-90
2022/03/18 05:12:14;;;;;;;8.30;3.50;;;-4.10;99.90;;;;;;4934475;29;20402;-91
2022/03/18 05:14:42;;;;;;;7.63;3.80;;;-4.10;99.90;;;;;;4934400;29;20420;-90
2022/03/18 05:17:10;;;;;;;7.80;3.50;;;-4.10;99.90;;;;;;4919089;29;20885;-90
2022/03/18 05:19:38;;;;;;;7.93;4.05;;;-4.00;99.90;;;;;;4934154;29;20413;-90
2022/03/18 05:22:07;;;;;;;8.18;3.83;;;-4.00;99.90;;;;;;4933978;29;20418;-90
2022/03/18 05:24:35;;;;;;;8.07;3.50;;;-4.00;99.90;;;;;;4934046;29;20410;-89
2022/03/18 05:27:03;;;;;;;84.70;9.57;;;-3.90;99.90;;;;;;4918159;29;20793;-90
2022/03/18 05:29:32;;;;;;;9.43;3.97;;;-3.90;99.90;;;;;;4933761;29;20474;-90
2022/03/18 05:32:01;;;;;;;8.57;3.70;;;-4.00;99.90;;;;;;4934277;29;20413;-90
2022/03/18 05:34:29;;;;;;;9.75;4.10;;;-3.90;99.90;;;;;;4933733;29;20408;-90
2022/03/18 05:36:57;;;;;;;8.20;3.92;;;-3.90;99.90;;;;;;4918137;29;20406;-90
2022/03/18 05:39:25;;;;;;;8.02;3.50;;;-3.90;99.90;;;;;;4930358;29;20926;-90
2022/03/18 05:41:52;;;;;;;10.20;3.92;;;-3.80;99.90;;;;;;4914907;29;20411;-90
2022/03/18 05:44:19;;;;;;;9.55;3.58;;;-3.80;99.90;;;;;;4930742;29;20400;-90
2022/03/18 05:46:47;;;;;;;7.20;3.50;;;-3.80;99.90;;;;;;4899171;29;20415;-90
2022/03/18 05:49:15;;;;;;;9.40;4.07;;;-3.80;99.90;;;;;;4910065;29;20421;-90
2022/03/18 05:51:42;;;;;;;8.60;3.90;;;-3.80;99.90;;;;;;4932330;29;20469;-91
2022/03/18 05:54:10;;;;;;;8.77;4.28;;;-3.80;99.90;;;;;;4916522;29;20405;-90
2022/03/18 05:56:53;;;;;;;8.70;4.18;;;-3.70;99.90;;;;;;4933337;29;20413;-90
2022/03/18 05:59:21;;;;;;;11.30;5.38;;;-3.70;99.90;;;;;;4918094;29;20873;-90
2022/03/18 06:01:49;;;;;;;8.90;4.05;;;-3.70;99.90;;;;;;4924443;29;20451;-89
2022/03/18 06:04:18;;;;;;;8.27;4.10;;;-3.70;99.90;;;;;;4921002;29;20763;-90
2022/03/18 06:06:47;;;;;;;7.32;3.67;;;-3.70;99.90;;;;;;4899323;29;20415;-90
2022/03/18 06:12:03;;;;;;;10.45;4.72;;;-3.70;99.90;;;;;;4930722;29;20771;-90
2022/03/18 06:14:31;;;;;;;25.05;10.98;;;-3.70;99.90;;;;;;4914833;29;20816;-90
2022/03/18 06:17:02;;;;;;;14.75;5.05;;;-3.60;99.90;;;;;;4914576;29;20427;-90
2022/03/18 06:19:31;;;;;;;11.07;4.88;;;-3.60;99.90;;;;;;4915167;29;20894;-91
2022/03/18 06:22:00;;;;;;;8.43;4.18;;;-3.60;99.90;;;;;;4898297;29;20426;-90
2022/03/18 06:24:29;;;;;;;9.43;4.30;;;-3.60;99.90;;;;;;4920035;29;20403;-90
2022/03/18 06:26:57;;;;;;;13.18;4.63;;;-3.50;99.90;;;;;;4912521;29;20471;-91
2022/03/18 06:29:26;;;;;;;11.05;4.93;;;-3.50;99.90;;;;;;4928964;29;20403;-91
2022/03/18 06:31:54;;;;;;;13.63;5.53;;;-3.40;99.90;;;;;;4930333;29;20400;-92
2022/03/18 06:34:22;;;;;;;11.30;5.18;;;-3.40;99.90;;;;;;4915163;29;20459;-91
2022/03/18 06:36:51;;;;;;;13.02;5.25;;;-3.30;99.90;;;;;;4914056;29;20444;-92
2022/03/18 06:39:20;;;;;;;14.88;6.05;;;-3.30;99.90;;;;;;4930956;29;20871;-92
2022/03/18 06:41:47;;;;;;;13.77;5.30;;;-3.30;99.90;;;;;;4899298;29;20953;-91
2022/03/18 06:44:15;;;;;;;15.05;5.60;;;-3.30;99.90;;;;;;4930490;29;20415;-91
2022/03/18 06:46:43;;;;;;;12.40;5.50;;;-3.20;99.90;;;;;;4930840;29;20670;-91
2022/03/18 06:49:13;;;;;;;11.68;5.18;;;-3.30;99.90;;;;;;4907183;29;20748;-91
2022/03/18 06:51:41;;;;;;;14.60;6.00;;;-3.30;99.90;;;;;;4917952;29;20902;-90
2022/03/18 06:54:08;;;;;;;14.93;5.70;;;-3.20;99.90;;;;;;4902373;29;20467;-89
2022/03/18 06:56:38;;;;;;;30.00;6.47;;;-3.20;99.90;;;;;;4918360;29;20396;-91
2022/03/18 06:59:06;;;;;;;9.82;5.07;;;-3.20;99.90;;;;;;4917904;29;20407;-91
2022/03/18 07:01:34;;;;;;;10.45;5.05;;;-3.10;99.90;;;;;;4902284;29;20415;-91
2022/03/18 07:04:02;;;;;;;13.32;5.47;;;-3.10;99.90;;;;;;4933702;29;20407;-92
2022/03/18 07:06:30;;;;;;;11.88;5.75;;;-3.10;99.90;;;;;;4933754;29;20418;-91
2022/03/18 07:08:57;;;;;;;11.82;5.80;;;-3.10;99.90;;;;;;4917700;29;20402;-91
2022/03/18 07:11:25;;;;;;;13.80;6.10;;;-3.00;99.90;;;;;;4902066;29;20439;-91
2022/03/18 07:13:53;;;;;;;11.15;5.47;;;-3.00;99.90;;;;;;4902596;29;20449;-92
2022/03/18 07:19:06;;;;;;;9.95;4.95;;;-2.90;99.90;;;;;;4917909;29;20432;-92
2022/03/18 07:21:34;;;;;;;11.85;5.80;;;-2.90;99.90;;;;;;4924627;29;20454;-91
2022/03/18 07:24:02;;;;;;;12.93;6.53;;;-2.80;99.90;;;;;;4915779;29;20418;-92
2022/03/18 07:26:30;;;;;;;10.73;5.53;;;-2.80;99.90;;;;;;4936345;29;20402;-92
2022/03/18 07:28:58;;;;;;;13.07;6.13;;;-2.80;99.90;;;;;;4936698;29;20414;-92
2022/03/18 07:31:25;;;;;;;12.80;6.03;;;-2.70;99.90;;;;;;4921150;29;20451;-93
2022/03/18 07:33:53;;;;;;;13.63;6.00;;;-2.70;99.90;;;;;;4936472;29;20911;-90
2022/03/18 07:36:21;;;;;;;15.00;6.73;;;-2.60;99.90;;;;;;4920573;29;20410;-91
2022/03/18 07:38:49;;;;;;;11.70;6.20;;;-2.60;99.90;;;;;;4936479;29;20413;-92
2022/03/18 07:41:17;;;;;;;11.90;5.78;;;-2.50;99.90;;;;;;4920207;29;20417;-92
2022/03/18 07:43:45;;;;;;;13.10;6.10;;;-2.40;99.90;;;;;;4920831;29;20402;-92
2022/03/18 07:46:12;;;;;;;11.80;5.75;;;-2.40;99.90;;;;;;4921120;29;20398;-92
2022/03/18 07:48:43;;;;;;;12.43;6.22;;;-2.30;99.90;;;;;;4935978;29;20423;-92
2022/03/18 07:51:11;;;;;;;10.80;5.67;;;-2.30;99.90;;;;;;4920673;29;20406;-93
2022/03/18 07:53:39;;;;;;;11.02;5.32;;;-2.30;99.90;;;;;;4936103;29;20398;-92
2022/03/18 07:56:06;;;;;;;11.75;5.50;;;-2.30;99.90;;;;;;4934938;29;20416;-93
2022/03/18 07:58:34;;;;;;;11.73;5.68;;;-2.20;99.90;;;;;;4937179;29;20413;-93
2022/03/18 08:01:03;;;;;;;12.82;6.00;;;-2.10;99.90;;;;;;4950670;29;20417;-90
2022/03/18 08:03:31;;;;;;;12.10;5.88;;;-2.00;99.90;;;;;;4941130;29;20410;-90
2022/03/18 08:05:59;;;;;;;11.43;5.50;;;-2.00;99.90;;;;;;4940244;29;20445;-93
2022/03/18 08:08:27;;;;;;;13.10;6.07;;;-1.90;99.90;;;;;;4941644;29;20470;-92
2022/03/18 08:10:55;;;;;;;13.43;6.15;;;-1.80;99.90;;;;;;4924582;29;20420;-93
2022/03/18 08:13:23;;;;;;;13.40;6.00;;;-1.80;99.90;;;;;;4941038;29;20405;-91
2022/03/18 08:15:54;;;;;;;12.52;6.05;;;-1.70;99.90;;;;;;4947732;29;20469;-90
2022/03/18 08:18:22;;;;;;;10.45;5.50;;;-1.70;99.90;;;;;;4963040;29;20416;-89
2022/03/18 08:20:53;;;;;;;12.02;5.38;;;-1.70;99.90;;;;;;4961490;28;20410;-89
2022/03/18 08:23:23;;;;;;;10.67;5.67;;;-1.60;99.90;;;;;;4975172;28;20422;-90
2022/03/18 08:25:51;;;;;;;11.25;6.10;;;-1.50;99.90;;;;;;4974496;28;20768;-90
2022/03/18 08:28:19;;;;;;;12.35;6.40;;;-1.50;99.90;;;;;;4932645;29;20501;-90
2022/03/18 08:30:48;;;;;;;14.90;6.40;;;-1.40;99.90;;;;;;4947870;29;20931;-90
2022/03/18 08:33:15;;;;;;;12.95;5.68;;;-1.40;99.90;;;;;;4926558;29;20504;-90
2022/03/18 08:35:43;;;;;;;13.50;6.85;;;-1.30;99.90;;;;;;4948208;29;20413;-90
2022/03/18 08:38:14;;;;;;;12.95;6.10;;;-1.20;99.90;;;;;;4932330;29;20413;-89
2022/03/18 08:40:42;;;;;;;13.73;6.75;;;-1.20;99.90;;;;;;4963947;29;20445;-89
2022/03/18 08:43:09;;;;;;;13.30;6.63;;;-1.10;99.90;;;;;;4932224;29;20925;-89
2022/03/18 08:45:41;;;;;;;16.38;6.78;;;-1.20;99.90;;;;;;4963813;29;20418;-90
2022/03/18 08:48:08;;;;;;;14.90;6.43;;;-1.10;99.90;;;;;;4947593;29;20414;-89
2022/03/18 08:50:36;;;;;;;14.23;6.28;;;-0.90;99.90;;;;;;4947606;29;20421;-91
2022/03/18 08:53:09;;;;;;;14.63;6.65;;;-0.90;99.90;;;;;;4947743;29;20425;-89
2022/03/18 08:55:40;;;;;;;15.32;7.05;;;-0.80;99.90;;;;;;4963332;29;20422;-89
2022/03/18 08:58:09;;;;;;;16.38;7.13;;;-0.80;99.90;;;;;;4962525;28;20409;-93
2022/03/18 09:00:37;;;;;;;14.45;7.20;;;-0.70;99.90;;;;;;4959205;29;20413;-87
2022/03/18 09:03:05;;;;;;;14.87;6.93;;;-0.70;99.90;;;;;;4921036;29;20425;-90
2022/03/18 09:05:35;;;;;;;11.10;6.20;;;-0.60;99.90;;;;;;4938666;29;20394;-88
2022/03/18 09:08:05;;;;;;;12.00;6.22;;;-0.50;99.90;;;;;;4978223;28;20402;-87
2022/03/18 09:10:36;;;;;;;13.98;6.80;;;-0.40;99.90;;;;;;4975725;28;20454;-88
2022/03/18 09:13:14;;;;;;;12.80;6.10;;;-0.40;99.90;;;;;;4963559;28;20501;-89
2022/03/18 09:15:42;;;;;;;12.73;6.75;;;-0.30;99.90;;;;;;4962492;29;20418;-87
2022/03/18 09:18:10;;;;;;;13.90;6.15;;;-0.20;99.90;;;;;;4946644;29;20421;-88
2022/03/18 09:20:38;;;;;;;12.10;5.72;;;0.00;99.90;;;;;;4962790;29;20445;-86
2022/03/18 09:23:08;;;;;;;12.88;5.97;;;0.10;99.90;;;;;;4931170;29;20409;-87
2022/03/18 09:25:36;;;;;;;12.45;6.28;;;0.50;99.90;;;;;;4961396;29;20417;-86
2022/03/18 09:28:04;;;;;;;12.55;6.25;;;0.40;99.90;;;;;;4930735;29;20967;-89
2022/03/18 09:30:50;;;;;;;13.45;5.88;;;0.40;99.90;;;;;;4947019;29;20414;-87
2022/03/18 09:33:18;;;;;;;11.35;6.10;;;0.30;99.90;;;;;;4931069;29;20421;-87
2022/03/18 09:35:46;;;;;;;12.63;6.10;;;0.40;99.90;;;;;;4931050;29;20797;-87
2022/03/18 09:38:14;;;;;;;11.45;5.57;;;0.70;99.90;;;;;;4929554;29;20443;-87
2022/03/18 09:40:42;;;;;;;10.80;5.75;;;0.80;99.90;;;;;;4946287;29;20931;-88
2022/03/18 09:43:38;;;;;;;12.93;6.00;;;1.20;99.90;;;;;;4959676;29;20813;-87
2022/03/18 09:46:11;;;;;;;11.57;5.80;;;1.00;99.90;;;;;;4946397;29;20417;-87
2022/03/18 09:49:01;;;;;;;11.07;5.63;;;0.90;99.90;;;;;;4959547;29;20485;-87
2022/03/18 09:51:29;;;;;;;14.27;6.85;;;0.80;99.90;;;;;;4930853;29;20413;-87
2022/03/18 09:54:32;;;;;;;12.32;5.97;;;0.80;99.90;;;;;;4958539;29;20422;-87
2022/03/18 09:57:05;;;;;;;10.07;5.60;;;1.00;99.90;;;;;;4962550;29;20554;-87
2022/03/18 09:59:32;;;;;;;11.43;5.60;;;1.20;99.90;;;;;;4962109;29;20434;-86
2022/03/18 10:02:21;;;;;;;11.02;5.85;;;1.40;99.90;;;;;;4962446;29;20421;-88
2022/03/18 10:04:57;;;;;;;13.43;6.28;;;1.40;99.90;;;;;;4962456;29;20810;-87
2022/03/18 10:07:26;;;;;;;14.13;6.45;;;1.30;99.90;;;;;;4930721;29;20897;-87
2022/03/18 10:10:15;;;;;;;12.95;6.28;;;1.40;99.90;;;;;;4962445;29;20413;-87
2022/03/18 10:12:45;;;;;;;12.07;6.38;;;1.40;99.90;;;;;;4962450;29;20414;-88
2022/03/18 10:15:18;;;;;;;11.75;5.60;;;1.50;99.90;;;;;;4946234;29;20418;-87
2022/03/18 10:17:51;;;;;;;11.75;5.50;;;1.60;99.90;;;;;;4962258;29;20421;-88
2022/03/18 10:20:37;;;;;;;11.13;5.57;;;1.90;99.90;;;;;;4928244;29;20501;-92
2022/03/18 10:23:20;;;;;;;11.02;5.57;;;2.10;99.90;;;;;;4958380;28;20433;-91
2022/03/18 10:25:50;;;;;;;10.43;5.63;;;1.90;99.90;;;;;;4947880;29;20425;-90
2022/03/18 10:28:32;;;;;;;11.63;6.10;;;2.10;99.90;;;;;;4938781;29;20410;-92
2022/03/18 10:31:14;;;;;;;11.13;5.72;;;2.30;99.90;;;;;;4919436;29;20467;-90
2022/03/18 10:39:42;;;;;;;9.75;5.50;;;2.50;99.90;;;;;;4919566;29;20850;-91
2022/03/18 10:42:15;;;;;;;10.13;5.78;;;2.80;99.90;;;;;;4922820;29;20422;-90
2022/03/18 10:44:52;;;;;;;10.98;5.60;;;3.00;99.90;;;;;;4921092;29;20419;-90
2022/03/18 10:47:36;;;;;;;11.83;6.23;;;2.70;99.90;;;;;;4967522;28;20448;-93
2022/03/18 10:50:19;;;;;;;10.52;5.53;;;2.70;99.90;;;;;;4953068;29;20473;-91
2022/03/18 10:52:50;;;;;;;11.13;5.78;;;2.80;99.90;;;;;;4921258;29;20506;-91
2022/03/18 10:55:36;;;;;;;9.77;5.70;;;3.00;99.90;;;;;;4936942;29;20409;-91
2022/03/18 10:58:12;;;;;;;12.15;6.28;;;2.90;99.90;;;;;;4921255;29;20421;-90
2022/03/18 11:00:51;;;;;;;11.60;5.90;;;2.80;99.90;;;;;;4921203;29;20848;-92
2022/03/18 11:03:23;;;;;;;10.80;5.27;;;2.80;99.90;;;;;;4936629;29;20417;-90
2022/03/18 11:05:51;;;;;;;11.15;5.40;;;2.80;99.90;;;;;;4952425;29;20402;-91
2022/03/18 11:08:23;;;;;;;11.65;5.55;;;3.10;99.90;;;;;;4952541;29;20405;-91
2022/03/18 11:11:14;;;;;;;11.18;5.90;;;3.10;99.90;;;;;;4936403;29;20900;-93
2022/03/18 11:13:59;;;;;;;10.40;6.00;;;3.10;99.90;;;;;;4937596;29;20394;-91
2022/03/18 11:16:34;;;;;;;10.38;5.70;;;3.10;99.90;;;;;;4930641;29;20411;-92
2022/03/18 11:19:05;;;;;;;11.17;5.90;;;3.60;99.90;;;;;;4933768;29;20475;-92
2022/03/18 11:21:36;;;;;;;11.82;6.03;;;3.40;99.90;;;;;;4901678;29;20419;-92
2022/03/18 11:24:11;;;;;;;10.73;5.90;;;3.40;99.90;;;;;;4917237;29;20437;-91
2022/03/18 11:26:47;;;;;;;12.93;6.05;;;3.40;99.90;;;;;;4916867;29;20419;-90
2022/03/18 11:29:22;;;;;;;11.33;6.20;;;3.50;99.90;;;;;;4917047;29;20421;-92
2022/03/18 11:32:12;;;;;;;11.07;6.13;;;3.50;99.90;;;;;;4901558;29;20950;-90
2022/03/18 11:34:51;;;;;;;11.38;5.72;;;4.10;99.90;;;;;;4901075;29;20910;-91
2022/03/18 11:37:20;;;;;;;11.67;5.90;;;4.20;99.90;;;;;;4917009;29;20437;-92
2022/03/18 11:39:48;;;;;;;11.15;5.57;;;4.10;99.90;;;;;;4901185;29;20823;-90
2022/03/18 11:42:20;;;;;;;11.18;6.32;;;4.20;99.90;;;;;;4900999;29;20415;-91
2022/03/18 11:45:01;;;;;;;11.13;5.88;;;4.30;99.10;;;;;;4927529;29;20530;-91
2022/03/18 11:47:28;;;;;;;11.32;5.47;;;4.50;98.90;;;;;;4934770;29;20465;-91
2022/03/18 11:50:37;;;;;;;10.02;5.65;;;4.50;98.60;;;;;;4919474;29;20604;-90
2022/03/18 11:53:06;;;;;;;10.73;5.00;;;4.70;96.90;;;;;;4932634;29;20420;-91
2022/03/18 11:55:34;;;;;;;9.40;4.70;;;4.80;95.90;;;;;;4930450;29;20479;-90
2022/03/18 11:58:29;;;;;;;9.85;5.25;;;4.90;96.20;;;;;;4922557;29;20402;-90
2022/03/18 12:00:57;;;;;;;10.70;5.13;;;5.10;93.80;;;;;;4919712;29;20901;-91
2022/03/18 12:03:29;;;;;;;8.88;4.97;;;5.10;95.30;;;;;;4919659;29;20473;-89
2022/03/18 12:05:59;;;;;;;9.35;4.80;;;5.10;94.40;;;;;;4918883;29;20469;-91
2022/03/18 12:08:53;;;;;;;9.57;5.10;;;5.20;94.40;;;;;;4936368;29;20437;-90
2022/03/18 12:11:30;;;;;;;9.63;5.43;;;5.00;95.20;;;;;;4918463;29;20421;-90
2022/03/18 12:14:05;;;;;;;9.77;5.20;;;5.20;94.10;;;;;;4919147;29;20513;-90
2022/03/18 12:16:33;;;;;;;10.57;5.18;;;5.20;93.60;;;;;;4926214;29;20450;-90
2022/03/18 12:19:18;;;;;;;9.70;5.35;;;5.30;92.70;;;;;;4939783;29;20916;-90
2022/03/18 12:21:46;;;;;;;10.25;5.15;;;5.40;94.90;;;;;;4919767;29;20461;-90
2022/03/18 12:24:14;;;;;;;9.85;5.40;;;5.50;93.40;;;;;;4919205;29;20510;-90
2022/03/18 12:26:51;;;;;;;9.07;5.25;;;5.60;94.10;;;;;;4934744;29;20414;-90
2022/03/18 12:29:26;;;;;;;10.48;5.30;;;5.60;93.00;;;;;;4919512;29;20410;-89
2022/03/18 12:32:05;;;;;;;8.80;5.00;;;5.70;93.50;;;;;;4934537;29;20420;-90
2022/03/18 12:34:35;;;;;;;10.52;5.38;;;5.50;95.00;;;;;;4908678;29;20416;-91
2022/03/18 12:37:12;;;;;;;8.95;4.80;;;5.60;94.50;;;;;;4900087;29;20494;-90
2022/03/18 12:39:39;;;;;;;9.80;5.10;;;5.70;92.50;;;;;;4920131;29;20424;-90
2022/03/18 12:42:10;;;;;;;9.95;5.22;;;5.80;92.40;;;;;;4915582;29;20416;-90
2022/03/18 12:44:44;;;;;;;9.70;5.45;;;5.80;92.60;;;;;;4915080;29;20491;-89
2022/03/18 12:47:12;;;;;;;9.13;5.28;;;5.90;92.90;;;;;;4915576;29;20411;-89
2022/03/18 12:49:40;;;;;;;9.98;4.80;;;6.00;92.60;;;;;;4915707;29;20471;-89
2022/03/18 12:52:12;;;;;;;10.27;5.28;;;6.00;91.50;;;;;;4925761;29;20440;-90
2022/03/18 12:55:04;;;;;;;10.52;5.32;;;6.00;93.00;;;;;;4918449;29;20904;-90
2022/03/18 12:57:34;;;;;;;10.80;6.18;;;6.10;92.70;;;;;;4934308;29;20425;-89
2022/03/18 13:00:01;;;;;;;10.50;5.90;;;6.20;92.30;;;;;;4934286;29;20445;-89
2022/03/18 13:02:52;;;;;;;12.10;6.35;;;6.30;91.00;;;;;;4915227;29;20443;-90
2022/03/18 13:05:27;;;;;;;10.63;5.47;;;6.30;91.40;;;;;;4930929;29;20411;-89
2022/03/18 13:08:07;;;;;;;8.20;4.93;;;6.30;89.60;;;;;;4915196;29;20897;-90
2022/03/18 13:10:35;;;;;;;9.27;4.80;;;6.30;92.00;;;;;;4930873;29;20417;-90
2022/03/18 13:13:11;;;;;;;8.07;4.40;;;6.30;88.90;;;;;;4915015;29;20411;-91
2022/03/18 13:15:47;;;;;;;9.60;5.22;;;6.20;89.60;;;;;;4915368;29;20423;-90
2022/03/18 13:18:17;;;;;;;9.93;5.32;;;6.40;91.10;;;;;;4915101;29;20898;-88
2022/03/18 13:20:48;;;;;;;9.15;5.18;;;6.40;91.00;;;;;;4931403;29;20412;-90
2022/03/18 13:23:19;;;;;;;8.95;5.30;;;6.30;91.20;;;;;;4915045;29;20902;-88